»·PEaware :: SWA2806 KDEN-KLAS

SWA2806 :: KDEN-KLAS

FLIGHT INFORMATION

Flight Status: Arrived
Operator:
Southwest Airlines
More flights by this operator :: More flights under this callsign
Pilot: Kirk M. (10269)
Aircraft: BOEING 737-800
(B738)
More flights by this aircraft type
Origin: KDEN Denver Intl
United States
Destination: KLAS McCarran Intl
United States
More flights between these airports :: More routes between these airports
Route: +CONNR4 DBL HVE GGAPP SITEE2
File this flight plan on PilotEdge
Remarks: PBN / A1B1C1D1S1S2 DOF / 180607 REG / N806SB EET / KZLC0042 KZLA0101 OPR / SWA PER / C RMK / TCAS SIMBRIEF
Altitude:
(Current/Filed)
36,000ft
Speed:
(Current/Filed)
445kts
Departed: 07-Jun-18 04:46 PM
Arrived: 07-Jun-18 06:18 PM
Distance/Time
Traveled:
545nm/1:32
Distance/Time
To Go:
Arrived

Flight Plot

Page will automatically refresh every two minutes.

Flight plan parsing failed; only flown route is shown


Map Options




Map Legend


Flown Route
Filed Route
Departure Airport
Arrival Airport
Navaid (VOR, NDB)
Fix

Horizontal Profiles

Position Reports

Time Latitude Longitude Heading Altitude Ground
Speed
07-Jun-18 16:15 39.862448 -104.675761 26 5324ft 0kts
07-Jun-18 16:16 39.862448 -104.675761 26 5324ft 0kts
07-Jun-18 16:17 39.862448 -104.675761 26 5324ft 0kts
07-Jun-18 16:18 39.862448 -104.675761 26 5324ft 0kts
07-Jun-18 16:19 39.862448 -104.675761 26 5324ft 0kts
07-Jun-18 16:20 39.862448 -104.675761 26 5324ft 0kts
07-Jun-18 16:21 39.862448 -104.675761 26 5324ft 0kts
07-Jun-18 16:22 39.862448 -104.675761 26 5324ft 0kts
07-Jun-18 16:23 39.862448 -104.675761 26 5324ft 0kts
07-Jun-18 16:24 39.862448 -104.675761 26 5324ft 0kts
07-Jun-18 16:25 39.862448 -104.675761 26 5324ft 0kts
07-Jun-18 16:26 39.862448 -104.675761 26 5324ft 0kts
07-Jun-18 16:27 39.862448 -104.675761 26 5324ft 0kts
07-Jun-18 16:28 39.862448 -104.675761 26 5324ft 0kts
07-Jun-18 16:29 39.862448 -104.675761 26 5324ft 0kts
07-Jun-18 16:30 39.862448 -104.675761 26 5324ft 0kts
07-Jun-18 16:31 39.862448 -104.675761 26 5324ft 0kts
07-Jun-18 16:32 39.862448 -104.675761 26 5324ft 0kts
07-Jun-18 16:33 39.862448 -104.675761 26 5324ft 0kts
07-Jun-18 16:34 39.862448 -104.675761 26 5324ft 0kts
07-Jun-18 16:35 39.862443 -104.675764 26 5324ft 1kts
07-Jun-18 16:36 39.861989 -104.676204 69 5324ft 2kts
07-Jun-18 16:37 39.861964 -104.675879 90 5324ft 0kts
07-Jun-18 16:38 39.861962 -104.675825 91 5324ft 0kts
07-Jun-18 16:39 39.861962 -104.675825 91 5324ft 0kts
07-Jun-18 16:40 39.861961 -104.675787 92 5324ft 1kts
07-Jun-18 16:41 39.861333 -104.673362 92 5324ft 11kts
07-Jun-18 16:42 39.861206 -104.667531 91 5324ft 15kts
07-Jun-18 16:43 39.860973 -104.663202 91 5324ft 9kts
07-Jun-18 16:44 39.861004 -104.661747 90 5324ft 0kts
07-Jun-18 16:45 39.860985 -104.660720 96 5324ft 4kts
07-Jun-18 16:46 39.847474 -104.660320 180 5325ft 139kts
07-Jun-18 16:47 39.799054 -104.661136 190 7103ft 188kts
07-Jun-18 16:48 39.753562 -104.712079 231 8443ft 253kts
07-Jun-18 16:49 39.736743 -104.787338 272 9939ft 289kts
07-Jun-18 16:50 39.753103 -104.888161 288 11096ft 332kts
07-Jun-18 16:51 39.772349 -104.996622 279 13403ft 345kts
07-Jun-18 16:52 39.786832 -105.116809 278 15756ft 362kts
07-Jun-18 16:53 39.791416 -105.245897 251 18406ft 366kts
07-Jun-18 16:54 39.762850 -105.371605 251 21102ft 371kts
07-Jun-18 16:55 39.734706 -105.499723 252 23642ft 373kts
07-Jun-18 16:56 39.707189 -105.629392 254 25827ft 380kts
07-Jun-18 16:57 39.689077 -105.752981 260 27694ft 385kts
07-Jun-18 16:58 39.674117 -105.887714 260 29489ft 392kts
07-Jun-18 16:59 39.658744 -106.025031 259 31506ft 388kts
07-Jun-18 17:00 39.643191 -106.162312 260 33313ft 384kts
07-Jun-18 17:01 39.628809 -106.288434 259 34809ft 380kts
07-Jun-18 17:02 39.594930 -106.413885 246 36208ft 372kts
07-Jun-18 17:03 39.554713 -106.539046 246 36535ft 394kts
07-Jun-18 17:04 39.512034 -106.671733 246 36446ft 414kts
07-Jun-18 17:05 39.470834 -106.799599 246 36212ft 414kts
07-Jun-18 17:06 39.429045 -106.936910 250 36135ft 415kts
07-Jun-18 17:07 39.392988 -107.072726 249 36137ft 414kts
07-Jun-18 17:08 39.354071 -107.210671 249 36208ft 414kts
07-Jun-18 17:09 39.314810 -107.349632 249 36447ft 414kts
07-Jun-18 17:10 39.275818 -107.488266 249 36455ft 413kts
07-Jun-18 17:11 39.236938 -107.627080 249 36433ft 416kts
07-Jun-18 17:12 39.200443 -107.757799 249 36183ft 416kts
07-Jun-18 17:13 39.163656 -107.898078 251 36052ft 416kts
07-Jun-18 17:14 39.127839 -108.039704 251 36028ft 421kts
07-Jun-18 17:15 39.094834 -108.169449 251 36017ft 427kts
07-Jun-18 17:16 39.058197 -108.312776 251 35961ft 427kts
07-Jun-18 17:17 39.022048 -108.453499 251 35961ft 427kts
07-Jun-18 17:18 38.985467 -108.595098 251 35962ft 427kts
07-Jun-18 17:19 38.956258 -108.707593 250 35966ft 427kts
07-Jun-18 17:20 38.918524 -108.851922 250 35966ft 427kts
07-Jun-18 17:21 38.881774 -108.991692 250 35968ft 427kts
07-Jun-18 17:22 38.843829 -109.135359 250 35967ft 427kts
07-Jun-18 17:23 38.805677 -109.279002 250 35965ft 427kts
07-Jun-18 17:24 38.767267 -109.422849 250 35968ft 427kts
07-Jun-18 17:25 38.730605 -109.559502 250 35964ft 427kts
07-Jun-18 17:26 38.693517 -109.696980 250 35971ft 427kts
07-Jun-18 17:27 38.654874 -109.839094 250 35968ft 427kts
07-Jun-18 17:28 38.616094 -109.981258 249 35968ft 427kts
07-Jun-18 17:29 38.576746 -110.124615 249 35967ft 427kts
07-Jun-18 17:30 38.537773 -110.265878 249 35967ft 427kts
07-Jun-18 17:31 38.498228 -110.408464 249 35965ft 427kts
07-Jun-18 17:32 38.459273 -110.548241 249 35964ft 427kts
07-Jun-18 17:33 38.420713 -110.684773 244 35966ft 426kts
07-Jun-18 17:34 38.352892 -110.805860 231 35966ft 426kts
07-Jun-18 17:35 38.280313 -110.924097 231 35967ft 425kts
07-Jun-18 17:36 38.207277 -111.042130 231 35965ft 425kts
07-Jun-18 17:37 38.134468 -111.159707 231 35964ft 425kts
07-Jun-18 17:38 38.061764 -111.277212 231 35963ft 425kts
07-Jun-18 17:39 37.988954 -111.395080 231 35961ft 425kts
07-Jun-18 17:40 37.916971 -111.511821 232 36199ft 425kts
07-Jun-18 17:41 37.849373 -111.621531 232 36209ft 424kts
07-Jun-18 17:42 37.780690 -111.733084 231 36211ft 424kts
07-Jun-18 17:43 37.709139 -111.849476 231 36213ft 424kts
07-Jun-18 17:44 37.637434 -111.966294 232 36211ft 424kts
07-Jun-18 17:45 37.565655 -112.083375 231 36210ft 424kts
07-Jun-18 17:46 37.500671 -112.203082 239 36210ft 422kts
07-Jun-18 17:47 37.440601 -112.328533 239 36208ft 423kts
07-Jun-18 17:48 37.382241 -112.450052 239 36170ft 423kts
07-Jun-18 17:49 37.322458 -112.574073 239 36043ft 423kts
07-Jun-18 17:50 37.261987 -112.699009 238 36047ft 423kts
07-Jun-18 17:51 37.201711 -112.822919 238 36048ft 423kts
07-Jun-18 17:52 37.140429 -112.948492 238 36047ft 423kts
07-Jun-18 17:53 37.080112 -113.071615 238 36045ft 423kts
07-Jun-18 17:54 37.021143 -113.191639 238 35901ft 381kts
07-Jun-18 17:55 36.964889 -113.305780 238 33539ft 410kts
07-Jun-18 17:56 36.903065 -113.430769 238 31181ft 423kts
07-Jun-18 17:57 36.842728 -113.552289 238 28635ft 446kts
07-Jun-18 17:58 36.781208 -113.675751 237 26228ft 433kts
07-Jun-18 17:59 36.725960 -113.786115 237 24151ft 408kts
07-Jun-18 18:00 36.671226 -113.895084 237 23913ft 366kts
07-Jun-18 18:01 36.617205 -114.002126 239 23824ft 372kts
07-Jun-18 18:02 36.562746 -114.109703 238 21099ft 360kts
07-Jun-18 18:03 36.512916 -114.207142 239 18388ft 341kts
07-Jun-18 18:04 36.462841 -114.304777 239 15615ft 341kts
07-Jun-18 18:05 36.412277 -114.403183 238 12994ft 334kts
07-Jun-18 18:06 36.363664 -114.497544 238 11958ft 323kts
07-Jun-18 18:07 36.315377 -114.591176 238 11958ft 322kts
07-Jun-18 18:08 36.248746 -114.649971 202 11663ft 307kts
07-Jun-18 18:09 36.170845 -114.684081 201 9164ft 299kts
07-Jun-18 18:10 36.104567 -114.725203 223 8302ft 246kts
07-Jun-18 18:11 36.073330 -114.787315 269 7495ft 220kts
07-Jun-18 18:12 36.075504 -114.845411 268 6070ft 227kts
07-Jun-18 18:13 36.076484 -114.915143 265 5462ft 185kts
07-Jun-18 18:14 36.076426 -114.976920 265 4507ft 183kts
07-Jun-18 18:15 36.076476 -115.026334 265 3721ft 153kts
07-Jun-18 18:16 36.076346 -115.076648 263 2945ft 149kts
07-Jun-18 18:17 36.073695 -115.125232 264 2206ft 144kts
07-Jun-18 18:18 36.073805 -115.152824 284 2119ft 21kts
07-Jun-18 18:19 36.074430 -115.154597 300 2119ft 0kts
07-Jun-18 18:20 36.075055 -115.155792 307 2119ft 9kts
07-Jun-18 18:21 36.076843 -115.157983 326 2119ft 8kts
07-Jun-18 18:22 36.078031 -115.157237 88 2119ft 8kts
07-Jun-18 18:23 36.078046 -115.154238 89 2119ft 9kts
07-Jun-18 18:24 36.078077 -115.151076 91 2119ft 10kts
07-Jun-18 18:25 36.078001 -115.149964 99 2119ft 0kts
07-Jun-18 18:26 36.078001 -115.149964 99 2119ft 0kts
07-Jun-18 18:27 36.078001 -115.149964 99 2119ft 0kts
07-Jun-18 18:28 36.078001 -115.149964 99 2119ft 0kts
07-Jun-18 18:29 36.078001 -115.148492 57 2119ft 4kts
07-Jun-18 18:30 36.079794 -115.148581 336 2119ft 8kts
07-Jun-18 18:31 36.081102 -115.148012 64 2119ft 2kts
07-Jun-18 18:32 36.081131 -115.147940 62 2119ft 0kts

Navigation Log

Ident Type
Flight plan parsing failed, navigation log unavailable